Time;durP1;ratioP1;P1;durP2;ratioP2;P2;SDS_P1;SDS_P2;PMS_P1;PMS_P2;Temp;Humidity;BMP_temperature;BMP_pressure;BME280_temperature;BME280_humidity;BME280_pressure;Samples;Min_cycle;Max_cycle;Signal;HPM_P1;HPM_P2
2022/04/21 00:00:20;;;;;;;6.63;1.70;;;;;;;;;;5038725;28;20419;-79
2022/04/21 00:02:46;;;;;;;4.63;1.90;;;;;;;;;;5040372;28;20404;-78
2022/04/21 00:05:13;;;;;;;3.07;1.93;;;;;;;;;;5041677;28;20397;-77
2022/04/21 00:07:39;;;;;;;3.20;1.85;;;;;;;;;;5042629;28;20403;-77
2022/04/21 00:10:05;;;;;;;3.87;2.10;;;;;;;;;;5039195;28;21682;-78
2022/04/21 00:12:33;;;;;;;3.22;1.95;;;;;;;;;;5033968;28;21038;-77
2022/04/21 00:14:59;;;;;;;3.20;1.85;;;;;;;;;;5039102;28;20446;-77
2022/04/21 00:17:25;;;;;;;3.78;1.77;;;;;;;;;;5045272;28;20504;-77
2022/04/21 00:19:51;;;;;;;4.90;2.00;;;;;;;;;;5045335;28;20849;-77
2022/04/21 00:25:02;;;;;;;10.23;3.57;;;;;;;;;;5040947;28;20414;-78
2022/04/21 00:27:28;;;;;;;7.38;3.13;;;;;;;;;;5040884;28;20417;-77
2022/04/21 00:29:56;;;;;;;4.75;2.85;;;;;;;;;;5040694;28;20431;-78
2022/04/21 00:32:22;;;;;;;3.58;2.15;;;;;;;;;;5046059;28;20877;-77
2022/04/21 00:34:49;;;;;;;5.28;2.67;;;;;;;;;;5042496;28;20910;-78
2022/04/21 00:37:15;;;;;;;4.97;2.55;;;;;;;;;;5042460;28;20887;-77
2022/04/21 00:39:41;;;;;;;5.35;2.97;;;;;;;;;;5045930;28;20401;-77
2022/04/21 00:42:07;;;;;;;4.20;2.65;;;;;;;;;;5039593;28;20440;-78
2022/04/21 00:44:34;;;;;;;4.03;2.25;;;;;;;;;;5039652;28;20400;-77
2022/04/21 00:47:03;;;;;;;5.78;2.85;;;;;;;;;;5047553;28;20415;-79
2022/04/21 00:49:29;;;;;;;8.00;3.08;;;;;;;;;;5044745;28;20471;-77
2022/04/21 00:51:56;;;;;;;4.60;2.80;;;;;;;;;;5043127;28;20912;-78
2022/04/21 00:54:22;;;;;;;5.20;2.83;;;;;;;;;;5045530;28;20417;-79
2022/04/21 00:56:49;;;;;;;3.87;2.53;;;;;;;;;;5039714;28;20489;-78
2022/04/21 00:59:15;;;;;;;3.97;2.35;;;;;;;;;;5041685;28;20413;-78
2022/04/21 01:04:26;;;;;;;4.70;2.83;;;;;;;;;;5043266;28;20451;-78
2022/04/21 01:06:53;;;;;;;5.20;2.97;;;;;;;;;;5038426;28;20399;-77
2022/04/21 01:09:19;;;;;;;4.40;2.30;;;;;;;;;;5041402;28;20444;-78
2022/04/21 01:11:46;;;;;;;3.72;2.47;;;;;;;;;;5042109;28;20422;-79
2022/04/21 01:14:13;;;;;;;5.55;3.08;;;;;;;;;;5048675;28;20428;-79
2022/04/21 01:16:39;;;;;;;4.93;2.65;;;;;;;;;;5044598;28;20447;-77
2022/04/21 01:19:05;;;;;;;4.00;2.05;;;;;;;;;;5045984;28;20413;-78
2022/04/21 01:21:31;;;;;;;4.65;2.55;;;;;;;;;;5049569;28;20043;-78
2022/04/21 01:23:57;;;;;;;3.33;1.73;;;;;;;;;;5046332;28;20052;-78
2022/04/21 01:26:23;;;;;;;3.40;2.53;;;;;;;;;;5038757;28;20470;-79
2022/04/21 01:28:49;;;;;;;3.72;1.80;;;;;;;;;;5044266;28;20103;-78
2022/04/21 01:31:25;;;;;;;3.38;2.20;;;;;;;;;;5040989;28;20499;-77
2022/04/21 01:33:51;;;;;;;5.38;1.63;;;;;;;;;;5043577;28;20128;-78
2022/04/21 01:36:17;;;;;;;5.63;2.38;;;;;;;;;;5044301;28;20029;-78
2022/04/21 01:41:28;;;;;;;5.57;2.70;;;;;;;;;;5043319;28;20411;-78
2022/04/21 01:43:54;;;;;;;3.42;2.38;;;;;;;;;;5045469;28;20104;-78
2022/04/21 01:46:20;;;;;;;5.43;1.98;;;;;;;;;;5042731;28;20025;-78
2022/04/21 01:48:46;;;;;;;4.38;2.10;;;;;;;;;;5039915;28;20048;-78
2022/04/21 01:51:12;;;;;;;2.85;2.13;;;;;;;;;;5041503;28;20075;-78
2022/04/21 01:53:38;;;;;;;4.72;2.33;;;;;;;;;;5046086;28;20108;-79
2022/04/21 01:56:04;;;;;;;4.32;1.90;;;;;;;;;;5043372;28;20029;-78
2022/04/21 01:58:30;;;;;;;3.85;2.17;;;;;;;;;;5041833;28;20025;-78
2022/04/21 02:00:56;;;;;;;3.50;1.42;;;;;;;;;;5042844;28;20086;-78
2022/04/21 02:03:22;;;;;;;6.93;2.80;;;;;;;;;;5042016;28;20251;-78
2022/04/21 02:05:48;;;;;;;5.13;2.63;;;;;;;;;;5042982;28;20040;-78
2022/04/21 02:08:15;;;;;;;5.65;3.17;;;;;;;;;;5044148;28;20397;-78
2022/04/21 02:10:41;;;;;;;3.38;2.13;;;;;;;;;;5034392;28;20021;-78
2022/04/21 02:13:07;;;;;;;4.22;2.38;;;;;;;;;;5045861;28;20029;-78
2022/04/21 02:15:33;;;;;;;2.60;1.70;;;;;;;;;;5041476;28;20021;-77
2022/04/21 02:18:01;;;;;;;3.22;2.53;;;;;;;;;;5045455;28;20032;-78
2022/04/21 02:20:27;;;;;;;2.30;1.60;;;;;;;;;;5044706;28;20428;-78
2022/04/21 02:22:53;;;;;;;5.32;2.53;;;;;;;;;;5038663;28;20026;-78
2022/04/21 02:25:19;;;;;;;5.40;3.63;;;;;;;;;;5040895;28;20033;-78
2022/04/21 02:27:46;;;;;;;6.43;3.00;;;;;;;;;;5048542;28;20505;-78
2022/04/21 02:30:13;;;;;;;6.70;3.60;;;;;;;;;;5042267;28;20523;-78
2022/04/21 02:32:40;;;;;;;4.75;2.53;;;;;;;;;;5042302;28;20067;-78
2022/04/21 02:35:09;;;;;;;11.00;3.17;;;;;;;;;;5043644;28;20039;-77
2022/04/21 02:37:43;;;;;;;8.50;3.35;;;3.80;99.90;;;;;;5041834;28;20116;-77
2022/04/21 02:40:10;;;;;;;5.75;2.95;;;;;;;;;;5046933;28;20029;-78
2022/04/21 02:42:39;;;;;;;5.25;3.03;;;;;;;;;;5040495;28;20426;-77
2022/04/21 02:45:06;;;;;;;5.88;2.50;;;;;;;;;;5039668;28;20855;-79
2022/04/21 02:47:32;;;;;;;6.18;3.58;;;;;;;;;;5043886;28;20029;-77
2022/04/21 02:49:59;;;;;;;5.28;2.45;;;;;;;;;;5042743;28;20049;-78
2022/04/21 02:52:25;;;;;;;5.10;3.33;;;;;;;;;;5037924;28;20413;-80
2022/04/21 02:57:36;;;;;;;7.20;3.25;;;;;;;;;;5045547;28;20040;-80
2022/04/21 03:00:03;;;;;;;7.45;3.38;;;;;;;;;;5043678;28;20044;-79
2022/04/21 03:02:29;;;;;;;5.97;2.70;;;;;;;;;;5037895;28;20120;-78
2022/04/21 03:04:55;;;;;;;4.13;2.08;;;;;;;;;;5043495;28;20554;-79
2022/04/21 03:07:22;;;;;;;3.83;2.33;;;;;;;;;;5041480;28;20400;-78
2022/04/21 03:09:53;;;;;;;5.57;3.72;;;;;;;;;;5045113;28;20124;-78
2022/04/21 03:12:19;;;;;;;4.43;2.55;;;;;;;;;;5036758;28;20021;-78
2022/04/21 03:14:45;;;;;;;8.82;3.20;;;;;;;;;;5038656;28;20405;-78
2022/04/21 03:17:11;;;;;;;4.45;2.60;;;;;;;;;;5043373;28;20021;-78
2022/04/21 03:19:37;;;;;;;5.45;2.72;;;;;;;;;;5044413;28;20072;-78
2022/04/21 03:24:49;;;;;;;6.25;3.03;;;;;;;;;;5041439;28;20099;-79
2022/04/21 03:27:15;;;;;;;9.13;3.50;;;;;;;;;;5046392;28;20025;-79
2022/04/21 03:29:41;;;;;;;9.20;3.35;;;;;;;;;;5041940;28;20037;-78
2022/04/21 03:32:13;;;;;;;6.50;3.42;;;;;;;;;;5038324;28;20488;-79
2022/04/21 03:34:40;;;;;;;3.70;2.85;;;;;;;;;;5047332;28;20400;-78
2022/04/21 03:37:06;;;;;;;7.88;2.80;;;;;;;;;;5041425;28;20523;-78
2022/04/21 03:39:32;;;;;;;7.30;3.38;;;;;;;;;;5041245;28;20392;-79
2022/04/21 03:41:58;;;;;;;5.00;2.97;;;;;;;;;;5038639;28;20032;-79
2022/04/21 03:44:24;;;;;;;8.20;3.50;;;;;;;;;;5043911;28;20051;-79
2022/04/21 03:46:51;;;;;;;4.97;2.72;;;;;;;;;;5046488;28;20033;-79
2022/04/21 03:49:16;;;;;;;7.30;3.83;;;;;;;;;;5048251;28;20059;-79
2022/04/21 03:51:42;;;;;;;6.00;3.45;;;;;;;;;;5045743;28;20489;-78
2022/04/21 03:54:08;;;;;;;6.13;2.72;;;;;;;;;;5042050;28;20561;-79
2022/04/21 03:56:35;;;;;;;9.32;4.05;;;;;;;;;;5041705;28;20052;-79
2022/04/21 03:59:01;;;;;;;4.55;2.88;;;;;;;;;;5051611;28;20036;-79
2022/04/21 04:01:27;;;;;;;8.63;3.38;;;;;;;;;;5046167;28;20013;-79
2022/04/21 04:03:53;;;;;;;7.05;3.72;;;;;;;;;;5046483;28;20025;-79
2022/04/21 04:11:50;;;;;;;6.20;3.55;;;;;;;;;;5045332;28;20036;-78
2022/04/21 04:14:16;;;;;;;6.57;3.95;;;;;;;;;;5050286;28;20029;-79
2022/04/21 04:16:42;;;;;;;7.05;3.05;;;;;;;;;;5049956;28;20021;-79
2022/04/21 04:19:08;;;;;;;5.25;3.58;;;;;;;;;;5048867;28;20035;-79
2022/04/21 04:21:37;;;;;;;5.80;3.08;;;;;;;;;;5047194;28;20021;-79
2022/04/21 04:24:04;;;;;;;7.07;3.10;;;;;;;;;;5048167;28;20017;-79
2022/04/21 04:26:32;;;;;;;6.07;3.35;;;;;;;;;;5046192;28;20029;-78
2022/04/21 04:28:58;;;;;;;6.28;3.33;;;;;;;;;;5041828;28;20111;-79
2022/04/21 04:31:24;;;;;;;5.63;3.53;;;;;;;;;;5049077;28;20029;-80
2022/04/21 04:33:50;;;;;;;5.55;3.15;;;;;;;;;;5040819;28;20508;-79
2022/04/21 04:36:16;;;;;;;6.43;2.85;;;;;;;;;;5047484;28;20017;-80
2022/04/21 04:38:43;;;;;;;3.75;2.55;;;;;;;;;;5036159;28;20098;-80
2022/04/21 04:43:54;;;;;;;4.35;2.95;;;;;;;;;;5045181;28;20043;-79
2022/04/21 04:46:35;;;;;;;8.70;4.63;;;;;;;;;;5037258;28;20033;-81
2022/04/21 04:49:06;;;;;;;8.32;5.15;;;;;;;;;;5042078;28;20768;-81
2022/04/21 04:51:32;;;;;;;11.57;4.80;;;;;;;;;;5036014;28;20044;-79
2022/04/21 04:53:58;;;;;;;7.78;4.63;;;;;;;;;;5043777;28;20033;-81
2022/04/21 04:56:24;;;;;;;6.28;4.10;;;;;;;;;;5047101;28;20028;-79
2022/04/21 04:58:51;;;;;;;4.97;2.88;;;;;;;;;;5041438;28;20039;-80
2022/04/21 05:01:20;;;;;;;7.45;3.45;;;;;;;;;;5035915;28;20052;-79
2022/04/21 05:03:46;;;;;;;8.07;3.92;;;;;;;;;;5044172;28;20037;-79
2022/04/21 05:06:12;;;;;;;5.13;3.67;;;;;;;;;;5034185;28;20029;-80
2022/04/21 05:08:39;;;;;;;5.57;3.38;;;;;;;;;;5039777;28;20044;-80
2022/04/21 05:11:05;;;;;;;5.75;3.17;;;;;;;;;;5034515;28;20108;-80
2022/04/21 05:13:31;;;;;;;8.98;4.40;;;;;;;;;;5029514;28;20037;-79
2022/04/21 05:15:57;;;;;;;5.88;3.50;;;;;;;;;;5026820;28;20024;-79
2022/04/21 05:18:23;;;;;;;6.38;3.38;;;;;;;;;;5039524;28;20037;-79
2022/04/21 05:20:49;;;;;;;5.38;3.03;;;;;;;;;;5035553;28;20025;-79
2022/04/21 05:23:17;;;;;;;8.02;4.28;;;;;;;;;;5037410;28;20151;-80
2022/04/21 05:25:43;;;;;;;4.88;3.33;;;;;;;;;;5042985;28;20021;-79
2022/04/21 05:28:09;;;;;;;9.45;5.40;;;;;;;;;;5044421;28;20021;-79
2022/04/21 05:30:58;;;;;;;8.52;4.22;;;;;;;;;;5040961;28;20669;-77
2022/04/21 05:33:25;;;;;;;9.07;5.00;;;;;;;;;;5043412;28;20032;-79
2022/04/21 05:35:52;;;;;;;13.18;5.00;;;;;;;;;;5047353;28;20532;-78
2022/04/21 05:38:20;;;;;;;6.30;4.50;;;;;;;;;;5046788;28;20029;-79
2022/04/21 05:40:46;;;;;;;6.72;4.18;;;;;;;;;;5041301;28;20021;-78
2022/04/21 05:43:12;;;;;;;10.20;3.60;;;;;;;;;;5045834;28;20547;-79
2022/04/21 05:45:39;;;;;;;8.20;4.90;;;;;;;;;;5036671;28;20040;-79
2022/04/21 05:48:05;;;;;;;12.65;3.85;;;;;;;;;;5032202;28;20024;-79
2022/04/21 05:50:31;;;;;;;6.95;4.53;;;;;;;;;;5040309;28;20041;-78
2022/04/21 05:53:03;;;;;;;7.30;4.75;;;4.60;99.90;;;;;;5043563;28;20029;-78
2022/04/21 05:55:29;;;;;;;9.50;4.88;;;;;;;;;;5038547;28;20484;-78
2022/04/21 05:57:55;;;;;;;;;;;;;;;;;;5042895;28;20033;-79
2022/04/21 06:00:20;;;;;;;8.68;4.57;;;6.70;99.90;;;;;;5043207;28;19913;-77
2022/04/21 06:02:47;;;;;;;14.80;6.85;;;;;;;;;;5046485;28;20211;-79
2022/04/21 06:05:13;;;;;;;27.85;6.28;;;;;;;;;;5037336;28;20543;-79
2022/04/21 06:07:39;;;;;;;10.68;5.72;;;;;;;;;;5048255;28;20029;-78
2022/04/21 06:10:06;;;;;;;12.32;6.00;;;;;;;;;;5044680;28;20585;-78
2022/04/21 06:12:33;;;;;;;11.68;5.70;;;;;;;;;;5041737;28;20033;-79
2022/04/21 06:14:59;;;;;;;8.68;5.40;;;;;;;;;;5034521;28;20029;-78
2022/04/21 06:17:25;;;;;;;8.75;4.70;;;;;;;;;;5038100;28;20984;-80
2022/04/21 06:19:51;;;;;;;8.23;4.30;;;;;;;;;;5043244;28;20405;-80
2022/04/21 06:22:17;;;;;;;7.22;4.35;;;;;;;;;;5035636;28;20404;-80
2022/04/21 06:24:43;;;;;;;7.38;4.00;;;;;;;;;;5045741;28;20103;-80
2022/04/21 06:27:09;;;;;;;8.63;4.57;;;;;;;;;;5045262;28;20472;-79
2022/04/21 06:29:35;;;;;;;7.45;3.78;;;;;;;;;;5040168;28;20045;-79
2022/04/21 06:32:01;;;;;;;7.93;3.30;;;;;;;;;;5042881;28;20044;-79
2022/04/21 06:34:27;;;;;;;5.78;3.15;;;;;;;;;;5038578;28;20499;-80
2022/04/21 06:36:53;;;;;;;6.40;2.92;;;;;;;;;;5040087;28;20112;-80
2022/04/21 06:39:19;;;;;;;7.28;3.90;;;;;;;;;;5041854;28;20485;-79
2022/04/21 06:41:45;;;;;;;5.60;3.38;;;;;;;;;;5038971;28;20565;-79
2022/04/21 06:49:40;;;;;;;;;;;;;;;;;;5037547;28;20047;-80
2022/04/21 06:52:07;;;;;;;;;;;;;;;;;;5060587;28;20681;-80
2022/04/21 06:54:33;;;;;;;5.28;2.67;;;;;;;;;;5041516;28;19912;-79
2022/04/21 06:56:59;;;;;;;6.95;3.42;;;;;;;;;;5034527;28;20025;-80
2022/04/21 06:59:25;;;;;;;6.68;3.33;;;;;;;;;;5037061;28;20431;-80
2022/04/21 07:01:50;;;;;;;5.85;3.53;;;;;;;;;;5038528;28;20039;-80
2022/04/21 07:04:17;;;;;;;8.20;3.55;;;;;;;;;;5042565;28;20037;-80
2022/04/21 07:06:43;;;;;;;7.88;3.92;;;;;;;;;;5038403;28;20431;-80
2022/04/21 07:09:09;;;;;;;5.85;3.13;;;;;;;;;;5036519;28;20040;-80
2022/04/21 07:11:37;;;;;;;4.50;2.70;;;;;;;;;;5040477;28;20029;-80
2022/04/21 07:14:03;;;;;;;7.32;3.83;;;;;;;;;;5040148;28;20040;-79
2022/04/21 07:16:29;;;;;;;6.15;2.95;;;;;;;;;;5031596;28;20025;-79
2022/04/21 07:18:55;;;;;;;6.40;3.55;;;;;;;;;;5048037;28;20064;-79
2022/04/21 07:21:21;;;;;;;6.43;2.95;;;;;;;;;;5043485;28;20043;-79
2022/04/21 07:23:47;;;;;;;4.50;2.65;;;;;;;;;;5048847;28;20047;-79
2022/04/21 07:26:13;;;;;;;8.95;2.83;;;;;;;;;;5037612;28;20017;-79
2022/04/21 07:28:41;;;;;;;4.72;2.33;;;;;;;;;;5047446;28;20036;-79
2022/04/21 07:31:07;;;;;;;5.97;2.85;;;;;;;;;;5043955;28;20048;-81
2022/04/21 07:33:33;;;;;;;7.28;3.17;;;12.00;99.90;;;;;;5029623;28;20086;-80
2022/04/21 07:35:59;;;;;;;7.80;3.67;;;;;;;;;;5031022;28;20025;-80
2022/04/21 07:38:25;;;;;;;7.68;2.85;;;;;;;;;;5046599;28;20040;-78
2022/04/21 07:40:53;;;;;;;6.93;3.08;;;;;;;;;;5049908;28;20033;-80
2022/04/21 07:43:19;;;;;;;4.32;2.17;;;;;;;;;;5042259;28;20025;-80
2022/04/21 07:45:46;;;;;;;7.95;3.58;;;;;;;;;;5040585;28;20287;-80
2022/04/21 07:48:12;;;;;;;6.35;2.72;;;;;;;;;;5038981;28;20033;-79
2022/04/21 07:50:38;;;;;;;7.90;3.15;;;;;;;;;;5038910;28;20044;-79
2022/04/21 07:53:13;;;;;;;7.63;4.15;;;;;;;;;;5042593;28;20040;-80
2022/04/21 07:55:39;;;;;;;6.82;3.03;;;;;;;;;;5037839;28;20477;-79
2022/04/21 07:58:06;;;;;;;5.30;2.90;;;;;;;;;;5038264;28;20032;-80
2022/04/21 08:00:36;;;;;;;5.45;2.85;;;;;;;;;;5044061;28;20033;-79
2022/04/21 08:03:03;;;;;;;7.72;3.20;;;;;;;;;;5033177;28;20179;-79
2022/04/21 08:05:29;;;;;;;7.68;3.03;;;;;;;;;;5035316;28;20036;-79
2022/04/21 08:07:55;;;;;;;7.05;2.85;;;;;;;;;;5025018;28;20033;-80
2022/04/21 08:10:22;;;;;;;5.40;2.90;;;;;;;;;;5046243;28;20029;-81
2022/04/21 08:12:48;;;;;;;7.30;3.17;;;;;;;;;;5042817;28;20029;-80
2022/04/21 08:15:26;;;;;;;7.05;2.95;;;;;;;;;;5045018;28;20041;-81
2022/04/21 08:17:54;;;;;;;8.70;2.80;;;;;;;;;;5037472;28;20029;-79
2022/04/21 08:20:21;;;;;;;5.35;3.17;;;;;;;;;;5035436;28;20029;-79
2022/04/21 08:22:47;;;;;;;5.50;2.85;;;;;;;;;;5035170;28;20039;-79
2022/04/21 08:33:28;;;;;;;6.60;3.03;;;;;;;;;;5052532;28;20083;-79
2022/04/21 08:35:58;;;;;;;5.13;2.83;;;;;;;;;;5044457;28;20036;-78
2022/04/21 08:38:24;;;;;;;5.70;3.08;;;;;;;;;;5044640;28;20126;-79
2022/04/21 08:40:54;;;;;;;6.13;2.55;;;17.20;89.80;;;;;;5050948;28;20424;-78
2022/04/21 08:43:21;;;;;;;3.47;2.03;;;;;;;;;;5050947;28;20112;-78
2022/04/21 08:45:48;;;;;;;4.50;2.25;;;;;;;;;;5051372;28;20033;-79
2022/04/21 08:48:16;;;;;;;6.00;2.13;;;20.50;74.10;;;;;;5050398;28;20491;-78
2022/04/21 08:50:42;;;;;;;4.35;2.30;;;;;;;;;;5052561;28;20035;-79
2022/04/21 08:53:09;;;;;;;4.82;2.65;;;;;;;;;;5053804;28;20029;-78
2022/04/21 08:55:35;;;;;;;5.95;2.90;;;;;;;;;;5050620;28;20025;-79
2022/04/21 08:58:01;;;;;;;6.28;2.03;;;;;;;;;;5048345;28;20477;-79
2022/04/21 09:00:31;;;;;;;5.68;2.55;;;;;;;;;;5046921;28;20033;-79
2022/04/21 09:02:56;;;;;;;5.85;2.75;;;;;;;;;;5044765;28;20041;-79
2022/04/21 09:05:23;;;;;;;3.50;2.00;;;;;;;;;;5044171;28;20032;-79
2022/04/21 09:07:52;;;;;;;4.55;2.00;;;;;;;;;;5046469;28;20025;-79
2022/04/21 09:10:19;;;;;;;6.05;3.05;;;19.10;68.80;;;;;;5049906;28;20083;-78
2022/04/21 09:12:46;;;;;;;6.43;3.42;;;;;;;;;;5052521;28;20054;-78
2022/04/21 09:15:14;;;;;;;6.75;3.63;;;;;;;;;;5044264;28;20397;-79
2022/04/21 09:17:44;;;;;;;5.70;3.05;;;;;;;;;;5041725;28;20648;-79
2022/04/21 09:20:11;;;;;;;9.63;4.38;;;;;;;;;;5051324;28;20061;-79
2022/04/21 09:22:40;;;;;;;6.75;3.03;;;;;;;;;;5050488;28;20036;-79
2022/04/21 09:25:06;;;;;;;6.22;2.88;;;;;;;;;;5053182;28;20650;-79
2022/04/21 09:27:43;;;;;;;5.30;2.22;;;;;;;;;;5049318;28;20041;-79
2022/04/21 09:30:13;;;;;;;6.75;2.80;;;;;;;;;;5038338;28;20044;-78
2022/04/21 09:32:50;;;;;;;5.70;3.35;;;;;;;;;;5047284;28;20024;-79
2022/04/21 09:35:17;;;;;;;4.13;2.40;;;;;;;;;;5044376;28;20029;-79
2022/04/21 09:37:50;;;;;;;5.05;1.85;;;;;;;;;;5039626;28;20067;-78
2022/04/21 09:40:20;;;;;;;3.90;2.08;;;;;;;;;;5044915;28;20120;-79
2022/04/21 09:42:54;;;;;;;5.22;2.30;;;;;;;;;;5048946;28;20108;-79
2022/04/21 09:48:12;;;;;;;7.13;3.00;;;;;;;;;;5044836;28;22490;-79
2022/04/21 09:50:42;;;;;;;6.40;2.53;;;;;;;;;;5051797;28;20035;-78
2022/04/21 09:53:08;;;;;;;7.35;2.65;;;;;;;;;;5047049;28;20040;-79
2022/04/21 09:55:34;;;;;;;5.65;2.50;;;;;;;;;;5056761;28;20040;-79
2022/04/21 09:58:05;;;;;;;4.82;2.80;;;;;;;;;;5050190;28;20044;-79
2022/04/21 10:00:31;;;;;;;5.72;3.28;;;;;;;;;;5050926;28;20040;-80
2022/04/21 10:02:59;;;;;;;4.45;2.63;;;;;;;;;;5047277;28;20103;-78
2022/04/21 10:05:26;;;;;;;4.93;2.60;;;;;;;;;;5044728;28;20040;-81
2022/04/21 10:07:53;;;;;;;6.30;2.55;;;;;;;;;;5049662;28;20056;-80
2022/04/21 10:10:19;;;;;;;6.43;3.15;;;;;;;;;;5050874;28;20033;-80
2022/04/21 10:12:45;;;;;;;8.50;3.60;;;;;;;;;;5049267;28;20103;-81
2022/04/21 10:15:11;;;;;;;5.90;2.38;;;;;;;;;;5047279;28;20029;-80
2022/04/21 10:17:38;;;;;;;5.57;2.83;;;;;;;;;;5037782;28;20037;-79
2022/04/21 10:20:05;;;;;;;7.03;2.45;;;;;;;;;;5051817;28;20037;-79
2022/04/21 10:22:33;;;;;;;4.00;2.28;;;;;;;;;;5046539;28;20032;-79
2022/04/21 10:24:59;;;;;;;8.77;2.50;;;;;;;;;;5049043;28;20036;-80
2022/04/21 10:27:35;;;;;;;4.30;2.35;;;;;;;;;;5038786;28;20021;-79
2022/04/21 10:30:01;;;;;;;4.68;2.65;;;;;;;;;;5039780;28;20048;-79
2022/04/21 10:32:46;;;;;;;4.10;2.20;;;;;;;;;;5045508;28;20025;-80
2022/04/21 10:35:18;;;;;;;8.55;2.33;;;;;;;;;;5032221;28;20059;-79
2022/04/21 10:37:44;;;;;;;4.25;2.45;;;;;;;;;;5040185;28;20043;-78
2022/04/21 10:40:14;;;;;;;3.35;2.13;;;;;;;;;;5039980;28;20059;-78
2022/04/21 10:42:51;;;;;;;5.15;2.40;;;17.40;73.00;;;;;;5049434;28;20130;-79
2022/04/21 10:45:21;;;;;;;6.25;3.08;;;;;;;;;;5042033;28;20051;-79
2022/04/21 10:48:03;;;;;;;5.68;2.60;;;;;;;;;;5049119;28;20029;-79
2022/04/21 10:50:32;;;;;;;5.80;3.03;;;;;;;;;;5045795;28;20052;-79
2022/04/21 10:58:34;;;;;;;3.28;1.77;;;;;;;;;;5030180;28;20053;-79
2022/04/21 11:01:11;;;;;;;4.25;2.30;;;;;;;;;;5037525;28;20488;-79
2022/04/21 11:03:37;;;;;;;8.38;3.50;;;17.40;73.30;;;;;;5041638;28;20029;-78
2022/04/21 11:06:07;;;;;;;3.90;2.05;;;;;;;;;;5040846;28;20071;-78
2022/04/21 11:08:33;;;;;;;6.13;2.90;;;;;;;;;;5038596;28;20052;-80
2022/04/21 11:10:59;;;;;;;7.38;3.28;;;;;;;;;;5034202;28;20025;-80
2022/04/21 11:13:44;;;;;;;4.72;2.08;;;;;;;;;;5042717;28;20033;-80
2022/04/21 11:16:10;;;;;;;4.15;2.08;;;;;;;;;;5046523;28;20031;-80
2022/04/21 11:18:36;;;;;;;3.35;1.70;;;;;;;;;;5048476;28;20021;-79
2022/04/21 11:21:28;;;;;;;2.67;1.58;;;;;;;;;;5046780;28;20030;-79
2022/04/21 11:23:54;;;;;;;4.70;2.13;;;;;;;;;;5049182;28;20033;-79
2022/04/21 11:26:26;;;;;;;5.65;2.38;;;;;;;;;;5048246;28;20648;-81
2022/04/21 11:28:52;;;;;;;4.75;2.47;;;;;;;;;;5049772;28;20390;-81
2022/04/21 11:31:21;;;;;;;6.15;2.28;;;16.40;76.90;;;;;;5046427;28;20037;-81
2022/04/21 11:33:48;;;;;;;4.60;2.38;;;;;;;;;;5052349;28;20025;-81
2022/04/21 11:36:14;;;;;;;4.05;2.17;;;;;;;;;;5040874;28;20361;-80
2022/04/21 11:38:44;;;;;;;3.67;1.70;;;;;;;;;;5041031;28;20044;-81
2022/04/21 11:41:11;;;;;;;5.15;1.75;;;;;;;;;;5052979;28;20071;-80
2022/04/21 11:43:38;;;;;;;7.75;3.20;;;;;;;;;;5049777;28;20120;-81
2022/04/21 11:46:05;;;;;;;4.97;2.13;;;;;;;;;;5047057;28;20036;-82
2022/04/21 11:48:37;;;;;;;6.00;2.40;;;;;;;;;;5041911;28;20041;-81
2022/04/21 11:51:03;;;;;;;3.25;1.63;;;;;;;;;;5047048;28;20187;-82
2022/04/21 11:53:30;;;;;;;3.88;1.77;;;;;;;;;;5049290;28;20033;-81
2022/04/21 11:55:56;;;;;;;3.30;1.75;;;;;;;;;;5049900;28;20029;-82
2022/04/21 11:58:26;;;;;;;2.58;1.65;;;;;;;;;;5043919;28;20137;-82
2022/04/21 12:06:30;;;;;;;6.55;1.80;;;;;;;;;;5036841;28;20086;-80
2022/04/21 12:08:56;;;;;;;4.10;1.75;;;;;;;;;;5041208;28;20041;-82
2022/04/21 12:11:23;;;;;;;2.75;1.50;;;;;;;;;;5056112;28;20029;-82
2022/04/21 12:13:49;;;;;;;3.13;1.67;;;;;;;;;;5049884;28;20099;-81
2022/04/21 12:16:35;;;;;;;2.22;1.35;;;;;;;;;;5047924;28;20041;-81
2022/04/21 12:19:20;;;;;;;4.50;1.90;;;;;;;;;;5056508;28;20037;-81
2022/04/21 12:21:56;;;;;;;3.00;1.27;;;;;;;;;;5048790;28;20033;-81
2022/04/21 12:24:27;;;;;;;2.85;1.20;;;;;;;;;;5051142;28;20469;-81
2022/04/21 12:26:54;;;;;;;4.75;1.88;;;;;;;;;;5054351;28;20571;-81
2022/04/21 12:29:21;;;;;;;4.78;1.77;;;;;;;;;;5045742;28;20037;-81
2022/04/21 12:31:48;;;;;;;3.85;1.60;;;;;;;;;;5048217;28;20045;-81
2022/04/21 12:34:19;;;;;;;3.38;1.40;;;;;;;;;;5047158;28;20112;-80
2022/04/21 12:36:59;;;;;;;3.85;2.10;;;;;;;;;;5046668;28;20108;-80
2022/04/21 12:39:26;;;;;;;2.85;1.52;;;;;;;;;;5045142;28;20055;-81
2022/04/21 12:41:53;;;;;;;3.22;1.85;;;17.10;71.80;;;;;;5057501;28;21226;-80
2022/04/21 12:44:22;;;;;;;2.70;1.30;;;;;;;;;;5050812;28;20022;-81
2022/04/21 12:47:02;;;;;;;7.22;2.30;;;;;;;;;;5042242;28;20029;-81
2022/04/21 12:49:47;;;;;;;3.72;1.83;;;;;;;;;;5050772;28;20057;-81
2022/04/21 12:52:12;;;;;;;5.38;2.40;;;;;;;;;;5053623;28;20642;-80
2022/04/21 12:54:38;;;;;;;3.33;1.67;;;;;;;;;;5052023;28;20037;-81
2022/04/21 12:57:07;;;;;;;5.13;1.25;;;;;;;;;;5050328;28;20025;-82
2022/04/21 12:59:33;;;;;;;2.85;1.38;;;;;;;;;;5043226;28;20029;-81
2022/04/21 13:01:59;;;;;;;4.15;1.55;;;;;;;;;;5034364;28;20852;-82
2022/04/21 13:04:25;;;;;;;4.07;1.15;;;;;;;;;;5040917;28;20048;-82
2022/04/21 13:06:51;;;;;;;2.10;1.20;;;;;;;;;;5047361;28;20463;-82
2022/04/21 13:09:17;;;;;;;7.22;2.45;;;;;;;;;;5051557;28;20029;-82
2022/04/21 13:11:43;;;;;;;4.57;1.88;;;;;;;;;;5056699;28;20029;-83
2022/04/21 13:14:09;;;;;;;3.30;0.98;;;;;;;;;;5051533;28;20060;-83
2022/04/21 13:16:35;;;;;;;2.30;1.30;;;;;;;;;;5049117;28;20017;-83
2022/04/21 13:19:01;;;;;;;2.88;1.30;;;;;;;;;;5044073;28;20037;-83
2022/04/21 13:24:11;;;;;;;3.20;1.27;;;;;;;;;;5050137;28;20044;-82
2022/04/21 13:26:37;;;;;;;7.32;2.17;;;;;;;;;;5046326;28;20037;-83
2022/04/21 13:29:06;;;;;;;3.08;1.38;;;;;;;;;;5048529;28;20197;-82
2022/04/21 13:34:16;;;;;;;4.90;1.73;;;;;;;;;;5043837;28;20132;-83
2022/04/21 13:36:42;;;;;;;2.72;1.30;;;;;;;;;;5045246;28;20017;-82
2022/04/21 13:39:08;;;;;;;2.08;1.40;;;;;;;;;;5044950;28;20113;-81
2022/04/21 13:41:35;;;;;;;2.20;0.68;;;;;;;;;;5042132;28;20049;-81
2022/04/21 13:44:01;;;;;;;2.40;1.08;;;;;;;;;;5048048;28;20033;-83
2022/04/21 13:46:27;;;;;;;5.30;2.08;;;;;;;;;;5043366;28;20021;-82
2022/04/21 13:48:53;;;;;;;2.63;1.17;;;;;;;;;;5046437;28;20037;-82
2022/04/21 13:51:19;;;;;;;2.60;0.95;;;;;;;;;;5052013;28;20037;-82
2022/04/21 13:53:45;;;;;;;3.15;1.45;;;;;;;;;;5052276;28;20036;-82
2022/04/21 13:56:11;;;;;;;6.57;1.73;;;;;;;;;;5048051;28;20022;-81
2022/04/21 13:58:37;;;;;;;3.45;0.80;;;;;;;;;;5048558;28;20384;-82
2022/04/21 14:01:03;;;;;;;3.47;0.68;;;;;;;;;;5049544;28;20036;-82
2022/04/21 14:03:36;;;;;;;6.53;0.60;;;;;;;;;;5048391;28;20029;-82
2022/04/21 14:06:02;;;;;;;2.00;0.65;;;;;;;;;;5047435;28;20047;-82
2022/04/21 14:08:28;;;;;;;1.23;0.65;;;;;;;;;;5048451;28;20100;-81
2022/04/21 14:10:54;;;;;;;3.15;1.50;;;;;;;;;;5056198;28;20029;-81
2022/04/21 14:13:19;;;;;;;4.53;1.67;;;;;;;;;;5054977;28;20039;-81
2022/04/21 14:15:46;;;;;;;4.03;1.55;;;;;;;;;;5052115;28;20040;-81
2022/04/21 14:18:12;;;;;;;6.80;2.25;;;;;;;;;;5042451;28;20048;-81
2022/04/21 14:20:38;;;;;;;4.32;1.80;;;;;;;;;;5048761;28;20032;-82
2022/04/21 14:23:04;;;;;;;4.40;2.38;;;;;;;;;;5053746;28;20028;-81
2022/04/21 14:25:30;;;;;;;17.77;4.65;;;;;;;;;;5037176;28;20126;-80
2022/04/21 14:27:56;;;;;;;5.43;2.35;;;;;;;;;;5041741;28;20068;-79
2022/04/21 14:30:22;;;;;;;3.80;1.55;;;;;;;;;;5039410;28;20037;-81
2022/04/21 14:32:48;;;;;;;2.67;1.38;;;;;;;;;;5034222;28;20043;-81
2022/04/21 14:35:14;;;;;;;1.88;1.10;;;;;;;;;;5040522;28;21054;-79
2022/04/21 14:45:54;;;;;;;1.52;0.93;;;;;;;;;;5034522;28;20087;-80
2022/04/21 14:48:22;;;;;;;2.35;0.95;;;;;;;;;;5045065;28;20032;-79
2022/04/21 14:50:48;;;;;;;4.15;1.10;;;;;;;;;;5042216;28;20029;-80
2022/04/21 14:53:14;;;;;;;2.30;0.80;;;;;;;;;;5038350;28;20507;-80
2022/04/21 14:55:40;;;;;;;7.82;1.35;;;;;;;;;;5039555;28;20017;-80
2022/04/21 14:58:06;;;;;;;4.53;1.00;;;;;;;;;;5046611;28;20039;-79
2022/04/21 15:00:32;;;;;;;4.07;1.67;;;;;;;;;;5036310;28;20033;-77
2022/04/21 15:02:58;;;;;;;3.65;1.65;;;;;;;;;;5039512;28;20443;-78
2022/04/21 15:05:24;;;;;;;10.90;2.55;;;;;;;;;;5041343;28;20028;-79
2022/04/21 15:07:50;;;;;;;6.20;2.78;;;;;;;;;;5037408;28;20567;-79
2022/04/21 15:10:16;;;;;;;4.53;1.67;;;;;;;;;;5039537;28;20143;-78
2022/04/21 15:12:42;;;;;;;3.97;1.40;;;;;;;;;;5046207;28;20100;-79
2022/04/21 15:15:08;;;;;;;5.10;1.55;;;;;;;;;;5042754;28;20491;-80
2022/04/21 15:17:34;;;;;;;3.35;1.20;;;;;;;;;;5043540;28;20432;-80
2022/04/21 15:20:02;;;;;;;7.15;1.35;;;;;;;;;;5048042;28;20021;-80
2022/04/21 15:22:29;;;;;;;3.92;1.65;;;;;;;;;;5045770;28;20059;-80
2022/04/21 15:24:56;;;;;;;2.42;1.55;;;;;;;;;;5049555;28;20035;-79
2022/04/21 15:27:22;;;;;;;2.30;1.38;;;;;;;;;;5043266;28;20493;-79
2022/04/21 15:29:48;;;;;;;6.63;1.25;;;;;;;;;;5043343;28;20043;-79
2022/04/21 15:32:14;;;;;;;4.68;1.58;;;;;;;;;;5039908;28;20237;-79
2022/04/21 15:34:40;;;;;;;2.15;1.02;;;;;;;;;;5048954;28;20033;-78
2022/04/21 15:37:06;;;;;;;;;;;;;;;;;;5035238;28;20036;-80
2022/04/21 15:39:32;;;;;;;;;;;;;;;;;;5046480;28;20056;-78
2022/04/21 15:41:58;;;;;;;;;;;;;;;;;;5049177;28;20011;-77
2022/04/21 15:44:24;;;;;;;;;;;;;;;;;;5041803;28;19916;-79